Terminal Aerodrome Forecast
Issued by NWS

Home | Current Version | Previous Version | Text Only | Print | Product List | Glossary On
Versions: 1 2 3 4 5 6 7 8 9 10 11 12 13 14 15
000
FTAK31 PAJN 021721
TAFAWG
TAF
PAWG 021721Z 0218/0318 32008KT P6SM FEW120
     FM022100 34012G20KT P6SM FEW120
     FM030500 VRB04KT P6SM FEW120
     FM031600 31008KT P6SM SKC
      AMD LTD TO CLD VIS AND WIND 0306/0315=

USA.gov is the U.S. government's official web portal to all federal, state and local government web resources and services.